createdAt,value
2018-01-30T00:00:30.869Z,1019.95
2018-01-30T00:01:11.321Z,1019.9
2018-01-30T00:01:51.634Z,1019.88
2018-01-30T00:02:32.149Z,1019.95
2018-01-30T00:03:12.422Z,1019.95
2018-01-30T00:03:52.903Z,1019.95
2018-01-30T00:04:33.205Z,1020.01
2018-01-30T00:05:13.619Z,1019.96
2018-01-30T00:05:53.999Z,1020
2018-01-30T00:06:34.512Z,1020.01
2018-01-30T00:07:14.868Z,1020.01
2018-01-30T00:07:55.305Z,1020.01
2018-01-30T00:08:35.678Z,1020.01
2018-01-30T00:09:16.094Z,1020.01
2018-01-30T00:09:56.468Z,1020.04
2018-01-30T00:10:36.867Z,1020.07
2018-01-30T00:11:17.224Z,1020.05
2018-01-30T00:11:57.635Z,1020.08
2018-01-30T00:12:37.997Z,1020.07
2018-01-30T00:13:18.439Z,1020.06
2018-01-30T00:13:58.874Z,1020.07
2018-01-30T00:14:39.238Z,1020.06
2018-01-30T00:15:19.684Z,1020.06
2018-01-30T00:16:00.099Z,1020.08
2018-01-30T00:16:40.556Z,1020.06
2018-01-30T00:17:21.000Z,1020.05
2018-01-30T00:18:01.396Z,1020.06
2018-01-30T00:18:41.756Z,1020.1
2018-01-30T00:19:22.165Z,1020.11
2018-01-30T00:20:02.546Z,1020.12
2018-01-30T00:20:43.046Z,1020.13
2018-01-30T00:21:23.446Z,1020.12
2018-01-30T00:22:03.860Z,1020.13
2018-01-30T00:22:44.214Z,1020.15
2018-01-30T00:23:24.654Z,1020.12
2018-01-30T00:24:05.061Z,1020.15
2018-01-30T00:24:45.413Z,1020.16
2018-01-30T00:25:25.837Z,1020.11
2018-01-30T00:26:06.228Z,1020.11
2018-01-30T00:26:46.655Z,1020.09
2018-01-30T00:27:27.067Z,1020.1
2018-01-30T00:28:07.448Z,1020.12
2018-01-30T00:28:47.834Z,1020.15
2018-01-30T00:29:28.270Z,1020.08
2018-01-30T00:30:08.639Z,1020.13
2018-01-30T00:30:49.059Z,1020.13
2018-01-30T00:31:29.386Z,1020.15
2018-01-30T00:32:09.838Z,1020.16
2018-01-30T00:32:50.227Z,1020.15
2018-01-30T00:33:30.609Z,1020.13
2018-01-30T00:34:11.042Z,1020.15
2018-01-30T00:34:51.410Z,1020.14
2018-01-30T00:35:31.886Z,1020.16
2018-01-30T00:36:12.265Z,1020.15
2018-01-30T00:36:52.721Z,1020.16
2018-01-30T00:37:33.092Z,1020.2
2018-01-30T00:38:13.446Z,1020.22
2018-01-30T00:38:54.031Z,1020.24
2018-01-30T00:39:34.403Z,1020.24
2018-01-30T00:40:14.819Z,1020.27
2018-01-30T00:40:55.177Z,1020.27
2018-01-30T00:41:35.549Z,1020.24
2018-01-30T00:42:16.009Z,1020.24
2018-01-30T00:42:56.339Z,1020.24
2018-01-30T00:43:36.755Z,1020.28
2018-01-30T00:44:17.084Z,1020.32
2018-01-30T00:44:57.505Z,1020.28
2018-01-30T00:45:37.933Z,1020.28
2018-01-30T00:46:18.283Z,1020.27
2018-01-30T00:46:58.728Z,1020.25
2018-01-30T00:47:39.088Z,1020.21
2018-01-30T00:48:19.521Z,1020.23
2018-01-30T00:48:59.943Z,1020.21
2018-01-30T00:49:40.301Z,1020.18
2018-01-30T00:50:20.735Z,1020.17
2018-01-30T00:51:01.109Z,1020.17
2018-01-30T00:51:41.511Z,1020.12
2018-01-30T00:52:21.882Z,1020.11
2018-01-30T00:53:02.298Z,1020.12
2018-01-30T00:53:42.737Z,1020.14
2018-01-30T00:54:23.172Z,1020.11
2018-01-30T00:55:03.569Z,1020.12
2018-01-30T00:55:43.966Z,1020.1
2018-01-30T00:56:24.300Z,1020.11
2018-01-30T00:57:04.700Z,1020.13
2018-01-30T00:57:45.105Z,1020.1
2018-01-30T00:58:25.569Z,1020.12
2018-01-30T00:59:05.956Z,1020.16
2018-01-30T00:59:46.346Z,1020.17
2018-01-30T01:00:26.782Z,1020.17
2018-01-30T01:01:07.106Z,1020.19
2018-01-30T01:01:47.506Z,1020.16
2018-01-30T01:02:27.879Z,1020.23
2018-01-30T01:03:08.252Z,1020.27
2018-01-30T01:03:48.676Z,1020.25
2018-01-30T01:04:29.118Z,1020.26
2018-01-30T01:05:09.515Z,1020.31
2018-01-30T01:05:49.903Z,1020.28
2018-01-30T01:06:30.326Z,1020.31
2018-01-30T01:07:10.648Z,1020.32
2018-01-30T01:07:51.089Z,1020.3
2018-01-30T01:08:31.470Z,1020.36
2018-01-30T01:09:11.853Z,1020.36
2018-01-30T01:09:52.251Z,1020.35
2018-01-30T01:10:32.647Z,1020.38
2018-01-30T01:11:13.013Z,1020.4
2018-01-30T01:11:53.426Z,1020.37
2018-01-30T01:12:33.824Z,1020.4
2018-01-30T01:13:14.202Z,1020.42
2018-01-30T01:13:54.537Z,1020.37
2018-01-30T01:14:34.961Z,1020.4
2018-01-30T01:15:15.428Z,1020.36
2018-01-30T01:15:55.783Z,1020.38
2018-01-30T01:16:36.246Z,1020.39
2018-01-30T01:17:16.564Z,1020.37
2018-01-30T01:17:57.018Z,1020.4
2018-01-30T01:18:37.369Z,1020.41
2018-01-30T01:19:17.767Z,1020.41
2018-01-30T01:19:58.172Z,1020.43
2018-01-30T01:20:38.538Z,1020.41
2018-01-30T01:21:18.930Z,1020.45
2018-01-30T01:21:59.371Z,1020.43
2018-01-30T01:22:39.756Z,1020.44
2018-01-30T01:23:20.162Z,1020.46
2018-01-30T01:24:00.547Z,1020.5
2018-01-30T01:24:40.983Z,1020.51
2018-01-30T01:25:21.364Z,1020.51
2018-01-30T01:26:01.723Z,1020.55
2018-01-30T01:26:42.190Z,1020.58
2018-01-30T01:27:22.538Z,1020.59
2018-01-30T01:28:02.932Z,1020.66
2018-01-30T01:28:43.346Z,1020.68
2018-01-30T01:29:23.755Z,1020.61
2018-01-30T01:30:04.104Z,1020.69
2018-01-30T01:30:44.524Z,1020.65
2018-01-30T01:31:24.959Z,1020.66
2018-01-30T01:32:05.359Z,1020.67
2018-01-30T01:32:45.739Z,1020.67
2018-01-30T01:33:26.092Z,1020.69
2018-01-30T01:34:06.453Z,1020.67
2018-01-30T01:34:46.846Z,1020.61
2018-01-30T01:35:27.221Z,1020.63
2018-01-30T01:36:07.641Z,1020.59
2018-01-30T01:36:48.022Z,1020.62
2018-01-30T01:37:28.433Z,1020.6
2018-01-30T01:38:08.804Z,1020.56
2018-01-30T01:38:49.206Z,1020.57
2018-01-30T01:39:29.617Z,1020.59
2018-01-30T01:40:10.076Z,1020.52
2018-01-30T01:40:50.448Z,1020.54
2018-01-30T01:41:30.780Z,1020.52
2018-01-30T01:42:11.244Z,1020.5
2018-01-30T01:42:51.572Z,1020.52
2018-01-30T01:43:31.970Z,1020.49
2018-01-30T01:44:12.446Z,1020.48
2018-01-30T01:44:52.808Z,1020.49
2018-01-30T01:45:33.167Z,1020.49
2018-01-30T01:46:13.612Z,1020.48
2018-01-30T01:46:54.042Z,1020.47
2018-01-30T01:47:34.520Z,1020.51
2018-01-30T01:48:14.901Z,1020.44
2018-01-30T01:48:55.284Z,1020.43
2018-01-30T01:49:35.679Z,1020.44
2018-01-30T01:50:16.065Z,1020.45
2018-01-30T01:50:56.511Z,1020.41
2018-01-30T01:51:36.938Z,1020.41
2018-01-30T01:52:17.264Z,1020.4
2018-01-30T01:52:57.770Z,1020.42
2018-01-30T01:53:38.132Z,1020.39
2018-01-30T01:54:18.479Z,1020.37
2018-01-30T01:54:58.937Z,1020.46
2018-01-30T01:55:39.299Z,1020.47
2018-01-30T01:56:19.710Z,1020.4
2018-01-30T01:57:00.087Z,1020.41
2018-01-30T01:57:40.525Z,1020.4
2018-01-30T01:58:20.905Z,1020.41
2018-01-30T01:59:01.292Z,1020.35
2018-01-30T01:59:41.678Z,1020.4
2018-01-30T02:00:22.134Z,1020.39
2018-01-30T02:01:02.546Z,1020.38
2018-01-30T02:01:42.880Z,1020.4
2018-01-30T02:02:23.347Z,1020.38
2018-01-30T02:03:03.702Z,1020.37
2018-01-30T02:03:44.160Z,1020.39
2018-01-30T02:04:24.501Z,1020.42
2018-01-30T02:05:04.913Z,1020.44
2018-01-30T02:05:45.321Z,1020.4
2018-01-30T02:06:25.789Z,1020.35
2018-01-30T02:07:06.140Z,1020.36
2018-01-30T02:07:46.533Z,1020.32
2018-01-30T02:08:26.944Z,1020.31
2018-01-30T02:09:07.356Z,1020.35
2018-01-30T02:09:47.702Z,1020.36
2018-01-30T02:10:28.166Z,1020.35
2018-01-30T02:11:08.548Z,1020.34
2018-01-30T02:11:48.992Z,1020.34
2018-01-30T02:12:29.400Z,1020.34
2018-01-30T02:13:09.790Z,1020.38
2018-01-30T02:13:50.184Z,1020.34
2018-01-30T02:14:30.596Z,1020.33
2018-01-30T02:15:10.986Z,1020.35
2018-01-30T02:15:51.379Z,1020.3
2018-01-30T02:16:31.774Z,1020.3
2018-01-30T02:17:12.155Z,1020.29
2018-01-30T02:17:52.531Z,1020.29
2018-01-30T02:18:32.966Z,1020.25
2018-01-30T02:19:13.382Z,1020.21
2018-01-30T02:19:53.816Z,1020.22
2018-01-30T02:20:34.186Z,1020.2
2018-01-30T02:21:14.571Z,1020.14
2018-01-30T02:21:54.950Z,1020.07
2018-01-30T02:22:35.336Z,1020.05
2018-01-30T02:23:15.782Z,1020.07
2018-01-30T02:23:56.155Z,1020.09
2018-01-30T02:24:36.555Z,1020.08
2018-01-30T02:25:16.978Z,1020.09
2018-01-30T02:25:57.405Z,1020.08
2018-01-30T02:26:37.807Z,1020.1
2018-01-30T02:27:18.389Z,1020.17
2018-01-30T02:27:58.764Z,1020.15
2018-01-30T02:28:39.174Z,1020.15
2018-01-30T02:29:19.587Z,1020.13
2018-01-30T02:29:59.991Z,1020.13
2018-01-30T02:30:40.301Z,1020.17
2018-01-30T02:31:20.664Z,1020.17
2018-01-30T02:32:01.124Z,1020.15
2018-01-30T02:32:41.461Z,1020.14
2018-01-30T02:33:21.856Z,1020.09
2018-01-30T02:34:02.310Z,1020.12
2018-01-30T02:34:42.700Z,1020.04
2018-01-30T02:35:23.076Z,1020.03
2018-01-30T02:36:03.490Z,1020
2018-01-30T02:36:43.905Z,1020.05
2018-01-30T02:37:24.247Z,1020
2018-01-30T02:38:04.712Z,1020.1
2018-01-30T02:38:45.092Z,1020.1
2018-01-30T02:39:25.438Z,1020.12
2018-01-30T02:40:05.855Z,1020.13
2018-01-30T02:40:46.166Z,1020.2
2018-01-30T02:41:26.537Z,1020.17
2018-01-30T02:42:06.991Z,1020.25
2018-01-30T02:42:47.353Z,1020.23
2018-01-30T02:43:27.812Z,1020.3
2018-01-30T02:44:08.218Z,1020.3
2018-01-30T02:44:48.550Z,1020.32
2018-01-30T02:45:29.013Z,1020.33
2018-01-30T02:46:09.398Z,1020.31
2018-01-30T02:46:49.819Z,1020.32
2018-01-30T02:47:30.196Z,1020.31
2018-01-30T02:48:10.578Z,1020.3
2018-01-30T02:48:50.954Z,1020.28
2018-01-30T02:49:31.394Z,1020.24
2018-01-30T02:50:11.732Z,1020.25
2018-01-30T02:50:52.198Z,1020.21
2018-01-30T02:51:32.565Z,1020.24
2018-01-30T02:52:12.974Z,1020.19
2018-01-30T02:52:53.423Z,1020.21
2018-01-30T02:53:33.787Z,1020.17
2018-01-30T02:54:14.214Z,1020.23
2018-01-30T02:54:54.619Z,1020.18
2018-01-30T02:55:34.970Z,1020.1
2018-01-30T02:56:15.408Z,1020.11
2018-01-30T02:56:55.740Z,1020.11
2018-01-30T02:57:36.096Z,1020.08
2018-01-30T02:58:16.511Z,1020.13
2018-01-30T02:58:56.916Z,1020.15
2018-01-30T02:59:37.330Z,1020.1
2018-01-30T03:00:17.730Z,1020.12
2018-01-30T03:00:58.074Z,1020.06
2018-01-30T03:01:38.481Z,1020.1
2018-01-30T03:02:18.892Z,1020.12
2018-01-30T03:02:59.321Z,1020.04
2018-01-30T03:03:39.714Z,1020.02
2018-01-30T03:04:20.027Z,1020.04
2018-01-30T03:05:00.475Z,1020.02
2018-01-30T03:05:40.852Z,1020.01
2018-01-30T03:06:21.210Z,1020.01
2018-01-30T03:07:01.585Z,1020.05
2018-01-30T03:07:42.039Z,1020.06
2018-01-30T03:08:22.399Z,1020.05
2018-01-30T03:09:02.843Z,1020.03
2018-01-30T03:09:43.215Z,1020.05
2018-01-30T03:10:23.555Z,1020.05
2018-01-30T03:11:03.962Z,1020.1
2018-01-30T03:11:44.400Z,1020.04
2018-01-30T03:12:24.825Z,1020.04
2018-01-30T03:13:05.212Z,1020.03
2018-01-30T03:13:45.612Z,1020.05
2018-01-30T03:14:26.047Z,1020.01
2018-01-30T03:15:06.503Z,1020
2018-01-30T03:15:46.866Z,1020.01
2018-01-30T03:16:27.274Z,1019.99
2018-01-30T03:17:07.751Z,1020
2018-01-30T03:17:48.141Z,1020.02
2018-01-30T03:18:28.544Z,1019.96
2018-01-30T03:19:08.882Z,1019.97
2018-01-30T03:19:49.316Z,1019.98
2018-01-30T03:20:29.674Z,1019.97
2018-01-30T03:21:10.159Z,1019.99
2018-01-30T03:21:50.406Z,1019.98
2018-01-30T03:22:30.843Z,1019.99
2018-01-30T03:23:11.324Z,1019.99
2018-01-30T03:23:51.677Z,1019.99
2018-01-30T03:24:32.056Z,1020.01
2018-01-30T03:25:12.431Z,1019.99
2018-01-30T03:25:52.837Z,1020.03
2018-01-30T03:26:33.259Z,1019.97
2018-01-30T03:27:13.643Z,1019.95
2018-01-30T03:27:54.114Z,1019.98
2018-01-30T03:28:34.451Z,1019.98
2018-01-30T03:29:14.901Z,1019.97
2018-01-30T03:29:55.254Z,1019.98
2018-01-30T03:30:35.615Z,1020
2018-01-30T03:31:16.030Z,1019.96
2018-01-30T03:31:56.477Z,1019.98
2018-01-30T03:32:36.858Z,1020.01
2018-01-30T03:33:17.237Z,1020.03
2018-01-30T03:33:57.665Z,1020.03
2018-01-30T03:34:38.076Z,1020.04
2018-01-30T03:35:18.491Z,1020.03
2018-01-30T03:35:58.842Z,1020
2018-01-30T03:36:39.230Z,1020.07
2018-01-30T03:37:19.679Z,1020
2018-01-30T03:38:00.028Z,1020.05
2018-01-30T03:38:40.469Z,1020.04
2018-01-30T03:39:20.776Z,1020.04
2018-01-30T03:40:01.340Z,1020.05
2018-01-30T03:40:41.694Z,1020.06
2018-01-30T03:41:22.184Z,1020.01
2018-01-30T03:42:02.591Z,1019.99
2018-01-30T03:42:42.837Z,1020.01
2018-01-30T03:43:23.215Z,1019.99
2018-01-30T03:44:03.731Z,1020.03
2018-01-30T03:44:44.097Z,1020
2018-01-30T03:45:24.423Z,1020.01
2018-01-30T03:46:04.875Z,1020.03
2018-01-30T03:46:45.239Z,1020.03
2018-01-30T03:47:25.640Z,1020.05
2018-01-30T03:48:06.000Z,1020.02
2018-01-30T03:48:46.369Z,1020.05
2018-01-30T03:49:26.809Z,1020.05
2018-01-30T03:50:07.158Z,1020.08
2018-01-30T03:50:47.560Z,1020.1
2018-01-30T03:51:27.967Z,1020.02
2018-01-30T03:52:08.389Z,1020.06
2018-01-30T03:52:48.761Z,1020.07
2018-01-30T03:53:29.091Z,1020.05
2018-01-30T03:54:09.474Z,1020.09
2018-01-30T03:54:49.932Z,1020.09
2018-01-30T03:55:30.290Z,1020.03
2018-01-30T03:56:10.689Z,1020.09
2018-01-30T03:56:51.147Z,1020.09
2018-01-30T03:58:58.356Z,1020.13
2018-01-30T04:45:59.466Z,1020.28
2018-01-30T05:12:44.066Z,1020.51
2018-01-30T05:16:18.298Z,1020.43
2018-01-30T05:19:08.217Z,1020.35
2018-01-30T05:24:36.480Z,1020.37
2018-01-30T05:42:46.523Z,1020.37
2018-01-30T05:44:42.459Z,1020.33
2018-01-30T05:47:06.909Z,1020.41
2018-01-30T05:51:37.944Z,1020.52
2018-01-30T05:53:37.220Z,1020.55
2018-01-30T06:28:03.761Z,1020.43
2018-01-30T06:38:20.913Z,1020.25
2018-01-30T07:58:18.364Z,1020.91
2018-01-30T07:59:07.559Z,1020.94
2018-01-30T07:59:56.176Z,1020.92
2018-01-30T08:00:46.184Z,1020.91
2018-01-30T08:01:36.168Z,1020.93
2018-01-30T08:05:49.911Z,1020.9
2018-01-30T08:11:47.638Z,1020.91
2018-01-30T08:12:36.742Z,1020.91
2018-01-30T08:13:25.740Z,1020.93
2018-01-30T08:14:14.467Z,1020.96
2018-01-30T08:15:03.289Z,1020.97
2018-01-30T08:19:12.440Z,1020.96
2018-01-30T08:20:11.282Z,1020.93
2018-01-30T08:21:07.818Z,1020.94
2018-01-30T08:22:04.405Z,1020.95
2018-01-30T08:23:00.511Z,1020.91
2018-01-30T08:23:59.138Z,1020.91
2018-01-30T08:32:19.216Z,1020.96
2018-01-30T08:33:07.836Z,1020.98
2018-01-30T08:33:56.756Z,1020.98
2018-01-30T08:34:45.727Z,1020.98
2018-01-30T08:35:34.019Z,1021.03
2018-01-30T08:36:26.078Z,1021.03
2018-01-30T08:38:47.209Z,1020.98
2018-01-30T08:39:36.047Z,1021
2018-01-30T08:40:24.673Z,1020.96
2018-01-30T08:41:13.616Z,1021
2018-01-30T08:42:03.458Z,1021
2018-01-30T08:47:51.096Z,1020.96
2018-01-30T08:48:40.014Z,1020.97
2018-01-30T08:49:29.349Z,1020.94
2018-01-30T08:50:18.186Z,1020.93
2018-01-30T08:51:06.547Z,1020.97
2018-01-30T08:53:34.784Z,1020.98
2018-01-30T08:54:33.844Z,1021
2018-01-30T08:55:29.290Z,1021.06
2018-01-30T08:56:27.650Z,1021.05
2018-01-30T09:02:04.919Z,1020.88
2018-01-30T09:06:26.884Z,1020.97
2018-01-30T09:07:15.494Z,1020.93
2018-01-30T09:07:57.698Z,1020.94
2018-01-30T09:08:38.316Z,1020.98
2018-01-30T09:09:19.124Z,1020.98
2018-01-30T09:09:59.903Z,1020.97
2018-01-30T09:13:23.377Z,1021.01
2018-01-30T09:14:14.129Z,1020.99
2018-01-30T09:15:02.865Z,1020.91
2018-01-30T09:15:52.058Z,1020.95
2018-01-30T09:16:40.297Z,1020.96
2018-01-30T09:19:04.814Z,1020.92
2018-01-30T09:19:53.202Z,1020.95
2018-01-30T09:20:42.324Z,1020.99
2018-01-30T09:21:30.628Z,1020.99
2018-01-30T09:22:20.106Z,1021.03
2018-01-30T09:47:32.943Z,1020.87
2018-01-30T09:48:21.507Z,1020.93
2018-01-30T09:49:09.209Z,1020.94
2018-01-30T09:53:16.497Z,1020.95
2018-01-30T09:54:03.397Z,1021.01
2018-01-30T09:54:53.503Z,1021.04
2018-01-30T09:55:42.315Z,1021
2018-01-30T09:56:32.187Z,1021.01
2018-01-30T10:01:41.110Z,1021.07
2018-01-30T10:02:29.785Z,1021.04
2018-01-30T10:03:20.438Z,1021.06
2018-01-30T10:04:07.675Z,1021.1
2018-01-30T10:46:19.624Z,1020.71
2018-01-30T10:47:14.703Z,1020.73
2018-01-30T10:48:08.496Z,1020.77
2018-01-30T10:49:06.674Z,1020.81
2018-01-30T10:50:05.771Z,1020.75
2018-01-30T10:51:00.150Z,1020.72
2018-01-30T10:51:59.756Z,1020.67
2018-01-30T10:53:00.693Z,1020.66
2018-01-30T10:56:51.284Z,1020.6
2018-01-30T10:57:47.430Z,1020.6
2018-01-30T11:00:00.594Z,1020.5
2018-01-30T11:00:55.049Z,1020.52
2018-01-30T11:01:49.805Z,1020.55
2018-01-30T11:02:46.932Z,1020.51
2018-01-30T11:03:32.768Z,1020.49
2018-01-30T11:04:13.249Z,1020.54
2018-01-30T11:04:53.738Z,1020.57
2018-01-30T11:05:34.120Z,1020.55
2018-01-30T11:06:14.492Z,1020.57
2018-01-30T11:06:54.935Z,1020.53
2018-01-30T11:07:35.831Z,1020.5
2018-01-30T11:08:16.235Z,1020.48
2018-01-30T11:08:56.722Z,1020.49
2018-01-30T11:09:37.284Z,1020.43
2018-01-30T11:10:17.973Z,1020.43
2018-01-30T11:10:58.819Z,1020.4
2018-01-30T11:11:39.185Z,1020.34
2018-01-30T11:12:20.079Z,1020.37
2018-01-30T11:13:00.467Z,1020.35
2018-01-30T11:13:40.916Z,1020.34
2018-01-30T11:14:21.530Z,1020.31
2018-01-30T11:15:02.074Z,1020.31
2018-01-30T11:15:42.523Z,1020.36
2018-01-30T11:16:23.134Z,1020.3
2018-01-30T11:17:05.322Z,1020.34
2018-01-30T11:17:45.766Z,1020.3
2018-01-30T11:18:25.504Z,1020.22
2018-01-30T11:19:05.982Z,1020.2
2018-01-30T11:19:46.462Z,1020.14
2018-01-30T11:20:27.171Z,1020.13
2018-01-30T11:21:07.678Z,1020.16
2018-01-30T11:21:48.254Z,1020.11
2018-01-30T11:22:29.650Z,1020.14
2018-01-30T11:23:11.821Z,1020.1
2018-01-30T11:23:52.874Z,1020.13
2018-01-30T11:26:20.730Z,1020.1
2018-01-30T11:27:09.771Z,1020.1
2018-01-30T11:27:50.574Z,1020.09
2018-01-30T11:28:31.160Z,1020.1
2018-01-30T11:29:11.691Z,1020.12
2018-01-30T11:29:52.230Z,1020.12
2018-01-30T11:30:32.696Z,1020.17
2018-01-30T11:31:13.098Z,1020.15
2018-01-30T11:31:53.670Z,1020.14
2018-01-30T11:32:34.049Z,1020.15
2018-01-30T11:33:14.506Z,1020.09
2018-01-30T11:33:54.954Z,1020.03
2018-01-30T11:34:35.422Z,1020.02
2018-01-30T11:35:15.817Z,1019.99
2018-01-30T11:35:56.207Z,1020.01
2018-01-30T11:36:36.765Z,1019.97
2018-01-30T11:37:17.314Z,1020.01
2018-01-30T11:37:57.826Z,1019.92
2018-01-30T11:38:40.746Z,1019.97
2018-01-30T11:39:25.289Z,1020
2018-01-30T11:41:33.220Z,1020
2018-01-30T11:44:10.052Z,1019.98
2018-01-30T11:44:50.843Z,1019.97
2018-01-30T11:45:31.276Z,1019.95
2018-01-30T11:46:12.325Z,1019.92
2018-01-30T11:46:55.882Z,1019.94
2018-01-30T11:47:36.133Z,1019.98
2018-01-30T11:48:18.958Z,1019.93
2018-01-30T11:49:00.840Z,1019.93
2018-01-30T11:49:41.444Z,1020
2018-01-30T11:50:21.885Z,1019.97
2018-01-30T11:51:02.260Z,1019.97
2018-01-30T11:51:42.707Z,1019.93
2018-01-30T11:52:23.155Z,1019.93
2018-01-30T11:53:03.739Z,1019.83
2018-01-30T11:53:44.753Z,1019.91
2018-01-30T11:54:26.355Z,1019.89
2018-01-30T11:55:06.864Z,1019.91
2018-01-30T11:55:48.367Z,1019.84
2018-01-30T11:56:29.269Z,1019.91
2018-01-30T11:57:09.559Z,1019.89
2018-01-30T11:57:50.140Z,1019.85
2018-01-30T11:58:30.878Z,1019.85
2018-01-30T11:59:12.220Z,1019.84
2018-01-30T11:59:53.142Z,1019.87
2018-01-30T12:00:34.500Z,1019.9
2018-01-30T12:01:15.246Z,1019.85
2018-01-30T12:01:55.311Z,1019.84
2018-01-30T12:02:35.879Z,1019.81
2018-01-30T12:04:51.688Z,1019.86
2018-01-30T12:05:51.490Z,1019.88
2018-01-30T12:06:47.286Z,1019.85
2018-01-30T12:07:39.772Z,1019.84
2018-01-30T12:10:15.154Z,1019.81
2018-01-30T12:11:07.771Z,1019.8
2018-01-30T12:12:00.397Z,1019.81
2018-01-30T12:12:52.806Z,1019.79
2018-01-30T12:13:46.615Z,1019.79
2018-01-30T12:14:38.871Z,1019.77
2018-01-30T12:15:32.973Z,1019.74
2018-01-30T12:16:25.059Z,1019.75
2018-01-30T12:17:05.450Z,1019.76
2018-01-30T12:17:45.773Z,1019.74
2018-01-30T12:18:27.092Z,1019.72
2018-01-30T12:19:07.851Z,1019.76
2018-01-30T12:19:48.316Z,1019.72
2018-01-30T12:20:31.632Z,1019.67
2018-01-30T12:21:12.655Z,1019.66
2018-01-30T12:21:53.545Z,1019.68
2018-01-30T12:22:34.004Z,1019.64
2018-01-30T12:23:14.713Z,1019.65
2018-01-30T12:23:56.091Z,1019.64
2018-01-30T12:24:36.321Z,1019.66
2018-01-30T12:25:16.970Z,1019.61
2018-01-30T12:25:57.507Z,1019.64
2018-01-30T12:26:39.793Z,1019.66
2018-01-30T12:28:46.953Z,1019.63
2018-01-30T12:30:51.146Z,1019.64
2018-01-30T12:31:43.894Z,1019.65
2018-01-30T12:32:36.637Z,1019.65
2018-01-30T12:33:28.142Z,1019.7
2018-01-30T12:37:23.714Z,1019.66
2018-01-30T12:38:17.029Z,1019.59
2018-01-30T12:40:21.676Z,1019.57
2018-01-30T12:41:03.056Z,1019.52
2018-01-30T12:41:43.083Z,1019.5
2018-01-30T12:42:24.299Z,1019.48
2018-01-30T12:43:04.968Z,1019.45
2018-01-30T12:43:45.364Z,1019.43
2018-01-30T12:46:03.646Z,1019.42
2018-01-30T12:46:56.618Z,1019.4
2018-01-30T12:47:37.116Z,1019.36
2018-01-30T12:48:17.666Z,1019.36
2018-01-30T12:48:58.920Z,1019.35
2018-01-30T12:49:39.791Z,1019.35
2018-01-30T12:54:18.567Z,1019.28
2018-01-30T12:55:09.406Z,1019.24
2018-01-30T12:55:57.805Z,1019.25
2018-01-30T12:56:46.562Z,1019.25
2018-01-30T12:57:35.456Z,1019.21
2018-01-30T12:58:23.617Z,1019.23
2018-01-30T13:00:33.268Z,1019.21
2018-01-30T13:01:18.639Z,1019.14
2018-01-30T13:01:59.188Z,1019.16
2018-01-30T13:02:39.522Z,1019.15
2018-01-30T13:03:20.188Z,1019.13
2018-01-30T13:04:00.605Z,1019.11
2018-01-30T13:04:41.039Z,1019.09
2018-01-30T13:05:21.597Z,1019.08
2018-01-30T13:06:02.005Z,1019.12
2018-01-30T13:06:43.499Z,1019.08
2018-01-30T13:07:23.913Z,1019.05
2018-01-30T13:08:04.360Z,1019.08
2018-01-30T13:08:51.642Z,1019.03
2018-01-30T13:09:37.848Z,1019.02
2018-01-30T13:11:20.356Z,1018.93
2018-01-30T13:12:16.444Z,1018.89
2018-01-30T13:12:57.069Z,1018.9
2018-01-30T13:13:37.462Z,1018.95
2018-01-30T13:14:21.198Z,1018.91
2018-01-30T13:15:01.719Z,1018.9
2018-01-30T13:15:42.124Z,1018.86
2018-01-30T13:16:22.836Z,1018.93
2018-01-30T13:17:03.262Z,1018.92
2018-01-30T13:17:43.624Z,1018.9
2018-01-30T13:18:24.147Z,1018.87
2018-01-30T13:19:04.462Z,1018.86
2018-01-30T13:19:44.845Z,1018.84
2018-01-30T13:20:25.349Z,1018.83
2018-01-30T13:21:05.817Z,1018.8
2018-01-30T13:21:46.491Z,1018.82
2018-01-30T13:22:26.970Z,1018.83
2018-01-30T13:23:08.262Z,1018.82
2018-01-30T13:23:48.708Z,1018.79
2018-01-30T13:24:42.186Z,1018.7
2018-01-30T13:25:21.016Z,1018.71
2018-01-30T13:26:02.372Z,1018.74
2018-01-30T13:26:43.113Z,1018.72
2018-01-30T13:27:23.812Z,1018.78
2018-01-30T13:28:26.899Z,1018.71
2018-01-30T13:29:07.859Z,1018.75
2018-01-30T13:29:48.504Z,1018.71
2018-01-30T13:30:29.199Z,1018.69
2018-01-30T13:31:25.282Z,1018.65
2018-01-30T13:32:06.270Z,1018.63
2018-01-30T13:32:46.342Z,1018.63
2018-01-30T13:33:27.042Z,1018.63
2018-01-30T13:34:07.566Z,1018.64
2018-01-30T13:34:48.083Z,1018.64
2018-01-30T13:35:28.719Z,1018.58
2018-01-30T13:36:09.209Z,1018.64
2018-01-30T13:36:50.343Z,1018.57
2018-01-30T13:37:30.676Z,1018.57
2018-01-30T13:38:11.047Z,1018.54
2018-01-30T13:43:51.779Z,1018.45
2018-01-30T13:50:54.003Z,1018.35
2018-01-30T13:52:10.561Z,1018.32
2018-01-30T13:53:02.980Z,1018.33
2018-01-30T13:54:00.230Z,1018.32
2018-01-30T13:58:10.350Z,1018.3
2018-01-30T13:58:52.936Z,1018.28
2018-01-30T13:59:34.106Z,1018.26
2018-01-30T14:01:55.533Z,1018.23
2018-01-30T14:04:29.809Z,1018.19
2018-01-30T14:05:10.683Z,1018.17
2018-01-30T14:05:51.576Z,1018.2
2018-01-30T14:06:32.295Z,1018.19
2018-01-30T14:15:00.106Z,1018.04
2018-01-30T14:15:55.997Z,1018.02
2018-01-30T14:16:49.850Z,1017.99
2018-01-30T14:17:30.779Z,1018.01
2018-01-30T14:18:11.489Z,1018.01
2018-01-30T14:18:51.962Z,1017.95
2018-01-30T14:19:32.520Z,1017.97
2018-01-30T14:20:13.045Z,1017.98
2018-01-30T14:20:53.474Z,1017.96
2018-01-30T14:26:17.520Z,1017.93
2018-01-30T14:27:06.652Z,1017.94
2018-01-30T14:27:57.278Z,1017.92
2018-01-30T14:28:45.973Z,1017.89
2018-01-30T14:29:34.115Z,1017.87
2018-01-30T14:30:23.175Z,1017.84
2018-01-30T14:32:36.288Z,1017.82
2018-01-30T14:33:32.209Z,1017.81
2018-01-30T14:34:41.557Z,1017.75
2018-01-30T14:35:44.018Z,1017.78
2018-01-30T14:36:40.628Z,1017.36
2018-01-30T14:46:11.651Z,1017.69
2018-01-30T14:47:03.518Z,1017.66
2018-01-30T14:47:56.168Z,1017.62
2018-01-30T14:50:24.565Z,1017.6
2018-01-30T14:51:17.222Z,1017.63
2018-01-30T14:52:10.162Z,1017.59
2018-01-30T14:53:05.526Z,1017.58
2018-01-30T14:55:32.719Z,1017.54
2018-01-30T14:56:18.444Z,1017.56
2018-01-30T14:56:59.006Z,1017.49
2018-01-30T14:57:40.274Z,1017.52
2018-01-30T14:58:20.868Z,1017.52
2018-01-30T14:59:02.313Z,1017.46
2018-01-30T14:59:43.937Z,1017.51
2018-01-30T15:00:24.683Z,1017.46
2018-01-30T15:02:55.867Z,1017.47
2018-01-30T15:03:49.950Z,1017.48
2018-01-30T15:05:52.944Z,1017.44
2018-01-30T15:06:38.040Z,1017.46
2018-01-30T15:07:19.171Z,1017.51
2018-01-30T15:07:59.154Z,1017.43
2018-01-30T15:08:39.621Z,1017.48
2018-01-30T15:09:20.542Z,1017.47
2018-01-30T15:10:07.938Z,1017.44
2018-01-30T15:10:48.439Z,1017.45
2018-01-30T15:11:29.086Z,1017.44
2018-01-30T15:12:10.166Z,1017.4
2018-01-30T15:12:53.145Z,1017.4
2018-01-30T15:13:34.111Z,1017.42
2018-01-30T15:14:29.155Z,1017.37
2018-01-30T15:15:09.930Z,1017.36
2018-01-30T15:15:50.806Z,1017.3
2018-01-30T15:16:31.387Z,1017.31
2018-01-30T15:17:11.991Z,1017.28
2018-01-30T15:17:52.970Z,1017.31
2018-01-30T15:18:33.772Z,1017.27
2018-01-30T15:19:14.706Z,1017.27
2018-01-30T15:19:55.532Z,1017.26
2018-01-30T15:20:36.970Z,1017.28
2018-01-30T15:21:17.709Z,1017.28
2018-01-30T15:21:58.207Z,1017.24
2018-01-30T15:22:38.868Z,1017.21
2018-01-30T15:26:38.157Z,1017.18
2018-01-30T15:27:27.113Z,1017.2
2018-01-30T15:28:07.308Z,1017.16
2018-01-30T15:28:48.006Z,1017.16
2018-01-30T15:29:28.376Z,1017.15
2018-01-30T15:30:08.879Z,1017.14
2018-01-30T15:30:50.016Z,1017.13
2018-01-30T15:31:30.463Z,1017.09
2018-01-30T15:32:10.889Z,1017.09
2018-01-30T15:32:51.349Z,1017.07
2018-01-30T15:33:32.526Z,1017.05
2018-01-30T15:34:12.357Z,1017.09
2018-01-30T15:34:52.809Z,1017.09
2018-01-30T15:35:33.190Z,1017.07
2018-01-30T15:36:14.542Z,1017.06
2018-01-30T15:36:54.692Z,1017.04
2018-01-30T15:37:34.967Z,1017.07
2018-01-30T15:38:15.361Z,1017.08
2018-01-30T15:38:55.946Z,1017.04
2018-01-30T15:39:36.507Z,1017.05
2018-01-30T15:40:16.955Z,1017.03
2018-01-30T15:40:57.453Z,1017.04
2018-01-30T15:41:39.530Z,1017
2018-01-30T15:42:19.674Z,1017
2018-01-30T15:43:01.582Z,1016.99